Time;durP1;ratioP1;P1;durP2;ratioP2;P2;SDS_P1;SDS_P2;PMS_P1;PMS_P2;Temp;Humidity;BMP_temperature;BMP_pressure;BME280_temperature;BME280_humidity;BME280_pressure;Samples;Min_cycle;Max_cycle;Signal;HPM_P1;HPM_P2
2023/04/04 00:01:03;;;;;;;7.82;2.70;;;2.50;99.90;;;;;;4964122;28;20166;-64
2023/04/04 00:03:29;;;;;;;6.05;2.28;;;2.50;99.90;;;;;;4965340;28;20617;-64
2023/04/04 00:05:55;;;;;;;4.15;2.08;;;2.50;99.90;;;;;;4969201;28;20430;-64
2023/04/04 00:08:21;;;;;;;5.18;2.22;;;2.60;99.90;;;;;;4966483;28;20133;-64
2023/04/04 00:10:46;;;;;;;5.78;2.50;;;2.60;99.90;;;;;;4966652;28;20035;-64
2023/04/04 00:13:12;;;;;;;7.53;2.58;;;2.80;99.90;;;;;;4971935;28;20471;-64
2023/04/04 00:15:38;;;;;;;5.68;2.30;;;2.90;99.90;;;;;;4969258;28;20043;-64
2023/04/04 00:18:03;;;;;;;5.38;2.20;;;2.60;99.90;;;;;;4969483;28;20109;-64
2023/04/04 00:20:30;;;;;;;6.03;2.58;;;2.70;99.90;;;;;;4971458;28;20042;-64
2023/04/04 00:22:56;;;;;;;6.72;2.50;;;2.80;99.90;;;;;;4966670;28;20033;-64
2023/04/04 00:25:22;;;;;;;7.03;2.42;;;2.90;99.90;;;;;;4966863;28;20045;-64
2023/04/04 00:27:48;;;;;;;3.92;2.20;;;2.60;99.90;;;;;;4974029;28;20034;-64
2023/04/04 00:30:14;;;;;;;6.20;2.35;;;2.80;99.90;;;;;;4967664;28;20462;-64
2023/04/04 00:32:39;;;;;;;7.03;2.60;;;2.70;99.90;;;;;;4967085;28;20035;-64
2023/04/04 00:35:05;;;;;;;3.90;2.25;;;2.70;99.90;;;;;;4966532;28;20508;-64
2023/04/04 00:37:31;;;;;;;7.70;2.55;;;2.60;99.90;;;;;;4966763;28;20038;-64
2023/04/04 00:39:57;;;;;;;7.93;2.15;;;2.70;99.90;;;;;;4968872;28;20734;-64
2023/04/04 00:42:22;;;;;;;6.05;2.40;;;2.60;99.90;;;;;;4969881;28;20057;-64
2023/04/04 00:44:50;;;;;;;8.32;2.83;;;2.80;99.90;;;;;;4969507;28;20050;-63
2023/04/04 00:47:15;;;;;;;8.43;2.30;;;2.80;99.90;;;;;;4968643;28;20117;-64
2023/04/04 00:49:41;;;;;;;5.65;2.45;;;2.80;99.90;;;;;;4966686;28;20138;-64
2023/04/04 00:52:06;;;;;;;5.30;2.40;;;2.80;99.90;;;;;;4970677;28;20089;-64
2023/04/04 00:54:33;;;;;;;5.68;2.30;;;2.70;99.90;;;;;;4964894;28;20042;-64
2023/04/04 00:57:00;;;;;;;5.93;2.50;;;2.70;99.90;;;;;;4970308;28;20530;-64
2023/04/04 00:59:27;;;;;;;5.00;2.50;;;2.60;99.90;;;;;;4970457;28;20627;-63
2023/04/04 01:01:53;;;;;;;5.00;2.75;;;2.60;99.90;;;;;;4966591;28;20035;-64
2023/04/04 01:04:19;;;;;;;8.18;2.50;;;2.70;99.90;;;;;;4964388;28;20395;-63
2023/04/04 01:06:45;;;;;;;7.82;2.85;;;2.70;99.90;;;;;;4965202;28;20038;-63
2023/04/04 01:09:11;;;;;;;5.18;2.50;;;2.70;99.90;;;;;;4965556;28;20443;-64
2023/04/04 01:11:37;;;;;;;8.30;2.78;;;2.60;99.90;;;;;;4968245;28;20129;-64
2023/04/04 01:14:03;;;;;;;7.35;3.22;;;2.70;99.90;;;;;;4967107;28;20486;-63
2023/04/04 01:16:29;;;;;;;6.35;2.88;;;2.80;99.90;;;;;;4963908;28;20451;-63
2023/04/04 01:18:55;;;;;;;8.85;3.20;;;2.80;99.90;;;;;;4968126;28;20046;-64
2023/04/04 01:21:22;;;;;;;5.28;2.67;;;2.60;99.90;;;;;;4966453;28;20031;-64
2023/04/04 01:24:02;;;;;;;6.82;3.22;;;2.40;99.90;;;;;;4968372;28;20089;-64
2023/04/04 01:26:28;;;;;;;7.72;3.28;;;2.40;99.90;;;;;;4967720;28;20281;-63
2023/04/04 01:28:55;;;;;;;7.15;3.58;;;2.50;99.90;;;;;;4962147;28;20137;-63
2023/04/04 01:31:40;;;;;;;13.30;5.57;;;2.30;99.90;;;;;;4966281;28;20039;-63
2023/04/04 01:34:27;;;;;;;22.15;8.45;;;2.20;99.90;;;;;;4962316;28;20468;-63
2023/04/04 01:37:09;;;;;;;16.48;6.68;;;2.20;99.90;;;;;;4963468;28;20042;-63
2023/04/04 01:39:42;;;;;;;14.35;6.28;;;2.00;99.90;;;;;;4958850;28;20065;-62
2023/04/04 01:42:08;;;;;;;10.75;5.63;;;2.00;99.90;;;;;;4964475;28;20053;-63
2023/04/04 01:44:34;;;;;;;12.45;5.43;;;1.90;99.90;;;;;;4960429;28;20392;-63
2023/04/04 01:47:02;;;;;;;10.27;5.20;;;2.00;99.90;;;;;;4962096;28;20041;-63
2023/04/04 01:49:27;;;;;;;10.38;4.75;;;1.90;99.90;;;;;;4958795;28;20047;-63
2023/04/04 01:51:54;;;;;;;9.88;3.97;;;1.90;99.90;;;;;;4961382;28;20039;-63
2023/04/04 01:54:19;;;;;;;11.85;4.15;;;2.10;99.90;;;;;;4958970;28;20038;-64
2023/04/04 01:56:45;;;;;;;8.77;4.72;;;2.10;99.90;;;;;;4961151;28;20518;-64
2023/04/04 01:59:11;;;;;;;9.13;4.13;;;2.10;99.90;;;;;;4967908;28;20058;-64
2023/04/04 02:01:37;;;;;;;9.50;4.22;;;2.20;99.90;;;;;;4960412;28;23933;-64
2023/04/04 02:04:03;;;;;;;9.00;4.07;;;2.20;99.90;;;;;;4959829;28;20034;-64
2023/04/04 02:06:29;;;;;;;8.80;3.78;;;2.20;99.90;;;;;;4960618;28;20432;-64
2023/04/04 02:08:55;;;;;;;9.38;4.07;;;2.20;99.90;;;;;;4961478;28;20054;-64
2023/04/04 02:11:24;;;;;;;7.10;3.78;;;2.20;99.90;;;;;;4964405;28;20034;-64
2023/04/04 02:13:50;;;;;;;11.25;4.18;;;2.10;99.90;;;;;;4960949;28;20031;-64
2023/04/04 02:16:15;;;;;;;12.50;4.25;;;2.20;99.90;;;;;;4965362;28;20077;-65
2023/04/04 02:18:41;;;;;;;8.18;4.35;;;2.20;99.90;;;;;;4963047;28;20026;-65
2023/04/04 02:21:07;;;;;;;8.18;3.85;;;2.10;99.90;;;;;;4963580;28;20232;-65
2023/04/04 02:23:32;;;;;;;9.05;3.95;;;2.00;99.90;;;;;;4960547;28;20038;-65
2023/04/04 02:25:58;;;;;;;9.32;4.50;;;1.90;99.90;;;;;;4966991;28;20479;-64
2023/04/04 02:28:24;;;;;;;9.00;4.18;;;1.90;99.90;;;;;;4969920;28;20031;-65
2023/04/04 02:30:50;;;;;;;10.23;4.40;;;1.90;99.90;;;;;;4972323;28;20448;-65
2023/04/04 02:33:16;;;;;;;8.00;4.20;;;2.10;99.90;;;;;;4971950;28;20034;-65
2023/04/04 02:35:41;;;;;;;13.25;4.63;;;2.00;99.90;;;;;;4967098;28;20045;-65
2023/04/04 02:38:07;;;;;;;12.30;4.80;;;1.90;99.90;;;;;;4969971;28;20054;-65
2023/04/04 02:40:32;;;;;;;12.50;4.22;;;1.80;99.90;;;;;;4965348;28;20144;-65
2023/04/04 02:42:58;;;;;;;8.63;3.63;;;1.70;99.90;;;;;;4967933;28;20404;-65
2023/04/04 02:45:23;;;;;;;10.18;4.20;;;1.60;99.90;;;;;;4964549;28;20104;-65
2023/04/04 02:47:49;;;;;;;9.32;4.20;;;1.60;99.90;;;;;;4970529;28;20038;-65
2023/04/04 02:50:16;;;;;;;8.55;4.50;;;1.60;99.90;;;;;;4966870;28;20674;-65
2023/04/04 02:52:41;;;;;;;9.35;4.18;;;1.60;99.90;;;;;;4963441;28;20035;-65
2023/04/04 02:55:08;;;;;;;10.63;4.55;;;1.90;99.90;;;;;;4969202;28;20077;-65
2023/04/04 02:57:34;;;;;;;13.35;4.50;;;1.80;99.90;;;;;;4968248;28;20030;-66
2023/04/04 03:00:00;;;;;;;18.13;4.35;;;1.80;99.90;;;;;;4963046;28;20042;-65
2023/04/04 03:02:25;;;;;;;9.50;4.40;;;1.80;99.90;;;;;;4964561;28;20369;-65
2023/04/04 03:04:51;;;;;;;13.07;5.05;;;1.80;99.90;;;;;;4969443;28;20524;-65
2023/04/04 03:07:17;;;;;;;14.80;4.68;;;1.80;99.90;;;;;;4962579;28;20058;-65
2023/04/04 03:09:44;;;;;;;12.25;4.85;;;1.80;99.90;;;;;;4966895;28;20078;-65
2023/04/04 03:12:10;;;;;;;11.57;4.57;;;1.80;99.90;;;;;;4969618;28;20027;-65
2023/04/04 03:14:36;;;;;;;11.13;5.18;;;1.80;99.90;;;;;;4963903;28;20616;-65
2023/04/04 03:17:02;;;;;;;12.18;4.55;;;1.70;99.90;;;;;;4963069;28;20034;-65
2023/04/04 03:19:27;;;;;;;11.32;4.57;;;1.50;99.90;;;;;;4960918;28;20034;-65
2023/04/04 03:21:53;;;;;;;8.68;4.50;;;1.70;99.90;;;;;;4962973;28;20110;-65
2023/04/04 03:24:18;;;;;;;10.88;4.43;;;1.80;99.90;;;;;;4965374;28;20038;-64
2023/04/04 03:26:44;;;;;;;11.75;5.03;;;1.80;99.90;;;;;;4968451;28;20045;-65
2023/04/04 03:29:09;;;;;;;8.45;4.32;;;1.70;99.90;;;;;;4964829;28;20038;-64
2023/04/04 03:31:35;;;;;;;10.60;3.88;;;1.80;99.90;;;;;;4968282;28;20402;-65
2023/04/04 03:34:01;;;;;;;10.05;4.75;;;1.80;99.90;;;;;;4965199;28;20037;-64
2023/04/04 03:36:26;;;;;;;9.68;4.80;;;1.50;99.90;;;;;;4960910;28;20045;-64
2023/04/04 03:38:52;;;;;;;10.95;4.40;;;1.50;99.90;;;;;;4964552;28;20493;-64
2023/04/04 03:41:17;;;;;;;12.25;5.05;;;1.70;99.90;;;;;;4969814;28;20109;-64
2023/04/04 03:43:44;;;;;;;11.85;4.70;;;1.60;99.90;;;;;;4965312;28;20162;-64
2023/04/04 03:46:09;;;;;;;10.10;4.68;;;1.50;99.90;;;;;;4959518;28;20404;-64
2023/04/04 03:48:36;;;;;;;7.78;4.43;;;1.50;99.90;;;;;;4968314;28;20078;-64
2023/04/04 03:51:03;;;;;;;12.48;5.30;;;1.60;99.90;;;;;;4960009;28;20030;-64
2023/04/04 03:53:29;;;;;;;11.70;5.38;;;1.60;99.90;;;;;;4962568;28;20466;-64
2023/04/04 03:55:55;;;;;;;10.32;4.55;;;1.50;99.90;;;;;;4960845;28;20079;-64
2023/04/04 03:58:21;;;;;;;10.13;4.63;;;1.40;99.90;;;;;;4958008;28;20042;-64
2023/04/04 04:00:47;;;;;;;11.48;4.78;;;1.30;99.90;;;;;;4958062;28;20042;-64
2023/04/04 04:03:13;;;;;;;9.75;4.55;;;1.30;99.90;;;;;;4960562;28;20415;-64
2023/04/04 04:05:39;;;;;;;8.25;4.38;;;1.30;99.90;;;;;;4963869;28;20041;-64
2023/04/04 04:08:04;;;;;;;12.50;4.47;;;1.10;99.90;;;;;;4956171;28;20166;-65
2023/04/04 04:10:31;;;;;;;7.63;4.55;;;1.10;99.90;;;;;;4958744;28;20129;-64
2023/04/04 04:12:57;;;;;;;11.15;4.57;;;1.00;99.90;;;;;;4970479;28;20042;-64
2023/04/04 04:15:23;;;;;;;8.30;4.47;;;1.10;99.90;;;;;;4960071;28;20434;-65
2023/04/04 04:17:48;;;;;;;9.80;4.63;;;1.20;99.90;;;;;;4969031;28;20041;-64
2023/04/04 04:20:14;;;;;;;13.02;4.95;;;1.10;99.90;;;;;;4964626;28;20077;-64
2023/04/04 04:22:45;;;;;;;11.55;4.57;;;1.10;99.90;;;;;;4958523;28;20459;-64
2023/04/04 04:25:11;;;;;;;12.70;5.25;;;1.00;99.90;;;;;;4960394;28;20062;-64
2023/04/04 04:27:36;;;;;;;12.70;4.70;;;0.90;99.90;;;;;;4964422;28;20065;-64
2023/04/04 04:30:03;;;;;;;10.90;5.20;;;1.00;99.90;;;;;;4965950;28;20124;-65
2023/04/04 04:32:29;;;;;;;12.85;5.18;;;0.80;99.90;;;;;;4981759;28;20493;-64
2023/04/04 04:34:54;;;;;;;10.63;5.03;;;1.00;99.90;;;;;;4958723;28;20101;-64
2023/04/04 04:37:20;;;;;;;9.65;5.03;;;0.90;99.90;;;;;;4958014;28;20057;-64
2023/04/04 04:39:45;;;;;;;13.55;5.80;;;0.80;99.90;;;;;;4962499;28;20109;-64
2023/04/04 04:42:11;;;;;;;10.25;4.93;;;0.90;99.90;;;;;;4962134;28;20242;-63
2023/04/04 04:44:37;;;;;;;12.65;5.47;;;0.80;99.90;;;;;;4961127;28;20035;-65
2023/04/04 04:47:02;;;;;;;12.18;5.22;;;0.90;99.90;;;;;;4960045;28;20046;-64
2023/04/04 04:49:29;;;;;;;10.82;4.97;;;0.90;99.90;;;;;;4966832;28;20394;-64
2023/04/04 04:51:54;;;;;;;12.15;5.45;;;0.90;99.90;;;;;;4964593;28;20050;-65
2023/04/04 04:54:20;;;;;;;11.38;5.50;;;0.90;99.90;;;;;;4969441;28;20031;-65
2023/04/04 04:56:46;;;;;;;9.43;5.22;;;0.90;99.90;;;;;;4970835;28;20586;-65
2023/04/04 04:59:12;;;;;;;18.33;5.68;;;0.80;99.90;;;;;;4972475;28;20544;-65
2023/04/04 05:01:38;;;;;;;13.30;5.53;;;0.80;99.90;;;;;;4970083;28;20494;-64
2023/04/04 05:04:03;;;;;;;12.52;5.18;;;0.80;99.90;;;;;;4966446;28;20121;-65
2023/04/04 05:06:29;;;;;;;10.23;5.38;;;0.80;99.90;;;;;;4962448;28;20048;-65
2023/04/04 05:08:54;;;;;;;8.65;5.32;;;0.80;99.90;;;;;;4962340;28;20050;-65
2023/04/04 05:11:20;;;;;;;11.35;4.95;;;0.70;99.90;;;;;;4958904;28;20034;-65
2023/04/04 05:13:46;;;;;;;17.27;6.05;;;0.70;99.90;;;;;;4962346;28;20093;-65
2023/04/04 05:16:12;;;;;;;8.10;5.18;;;0.70;99.90;;;;;;4962338;28;20035;-65
2023/04/04 05:18:38;;;;;;;13.38;5.70;;;0.80;99.90;;;;;;4968122;28;20035;-65
2023/04/04 05:21:03;;;;;;;9.13;5.07;;;0.80;99.90;;;;;;4962918;28;20549;-65
2023/04/04 05:23:29;;;;;;;13.10;5.88;;;0.70;99.90;;;;;;4960304;28;20446;-65
2023/04/04 05:25:55;;;;;;;16.92;5.85;;;0.70;99.90;;;;;;4962411;28;20069;-65
2023/04/04 05:28:21;;;;;;;12.93;5.47;;;0.70;99.90;;;;;;4963201;28;20460;-65
2023/04/04 05:30:47;;;;;;;14.32;5.60;;;0.60;99.90;;;;;;4963154;28;20702;-65
2023/04/04 05:33:12;;;;;;;14.25;5.20;;;0.70;99.90;;;;;;4958599;28;20112;-65
2023/04/04 05:35:39;;;;;;;9.30;5.30;;;0.60;99.90;;;;;;4963288;28;20380;-64
2023/04/04 05:38:05;;;;;;;12.90;5.72;;;0.70;99.90;;;;;;4963815;28;20041;-64
2023/04/04 05:40:31;;;;;;;11.18;5.60;;;0.80;99.90;;;;;;4963202;28;20042;-65
2023/04/04 05:42:59;;;;;;;13.30;5.38;;;0.80;99.90;;;;;;4963699;28;20050;-64
2023/04/04 05:45:25;;;;;;;12.88;5.88;;;1.00;99.90;;;;;;4959973;28;20129;-64
2023/04/04 05:47:51;;;;;;;10.60;5.78;;;1.00;99.90;;;;;;4962650;28;20047;-64
2023/04/04 05:50:16;;;;;;;10.75;5.40;;;0.90;99.90;;;;;;4967496;28;20185;-64
2023/04/04 05:52:42;;;;;;;17.10;5.93;;;1.10;99.90;;;;;;4966358;28;20054;-64
2023/04/04 05:55:08;;;;;;;14.70;8.88;;;1.10;99.90;;;;;;4966877;28;20406;-64
2023/04/04 05:57:34;;;;;;;17.83;10.95;;;1.00;99.90;;;;;;4978679;28;20115;-62
2023/04/04 06:00:00;;;;;;;14.38;8.02;;;1.10;99.90;;;;;;4977481;28;20046;-62
2023/04/04 06:02:25;;;;;;;10.85;6.57;;;1.10;99.90;;;;;;4972412;28;20494;-62
2023/04/04 06:04:51;;;;;;;11.02;5.50;;;1.20;99.90;;;;;;4973533;28;20509;-62
2023/04/04 06:07:17;;;;;;;13.77;6.10;;;1.20;99.90;;;;;;4973022;28;20034;-62
2023/04/04 06:09:43;;;;;;;12.25;5.60;;;1.20;99.90;;;;;;4971883;28;20042;-62
2023/04/04 06:12:08;;;;;;;9.95;5.70;;;1.40;99.90;;;;;;4972668;28;20094;-62
2023/04/04 06:14:37;;;;;;;14.27;6.07;;;1.60;99.90;;;;;;4975057;28;20035;-62
2023/04/04 06:17:03;;;;;;;16.58;6.63;;;1.50;99.90;;;;;;4970160;28;20065;-63
2023/04/04 06:19:29;;;;;;;13.40;6.35;;;1.60;99.90;;;;;;4973584;28;20113;-63
2023/04/04 06:21:55;;;;;;;11.68;6.15;;;1.60;99.90;;;;;;4973119;28;20486;-63
2023/04/04 06:24:21;;;;;;;17.83;6.53;;;1.70;99.90;;;;;;4970637;28;20419;-62
2023/04/04 06:26:50;;;;;;;13.75;5.95;;;1.80;99.90;;;;;;4966031;28;20129;-62
2023/04/04 06:29:16;;;;;;;16.67;6.70;;;1.80;99.90;;;;;;4972808;28;20046;-62
2023/04/04 06:31:42;;;;;;;12.68;6.28;;;2.00;99.90;;;;;;4970041;28;20467;-61
2023/04/04 06:34:08;;;;;;;14.90;7.05;;;2.00;99.90;;;;;;4972843;28;20120;-62
2023/04/04 06:36:33;;;;;;;13.40;6.32;;;2.10;99.90;;;;;;4967030;28;20060;-62
2023/04/04 06:38:59;;;;;;;19.88;6.90;;;2.20;99.90;;;;;;4973094;28;20117;-62
2023/04/04 06:41:25;;;;;;;12.73;6.53;;;2.30;99.90;;;;;;4971931;28;20038;-62
2023/04/04 06:43:50;;;;;;;11.63;6.20;;;2.30;99.90;;;;;;4960645;28;20121;-62
2023/04/04 06:46:16;;;;;;;12.27;6.50;;;2.50;99.90;;;;;;4964236;28;20100;-62
2023/04/04 06:48:42;;;;;;;12.00;6.80;;;2.80;99.90;;;;;;4967579;28;20035;-62
2023/04/04 06:51:08;;;;;;;18.98;6.70;;;2.90;99.90;;;;;;4964882;28;20042;-62
2023/04/04 06:53:33;;;;;;;15.63;6.93;;;3.00;99.90;;;;;;4965417;28;20105;-62
2023/04/04 06:56:00;;;;;;;12.60;6.22;;;3.00;99.90;;;;;;4965662;28;20453;-62
2023/04/04 06:58:25;;;;;;;14.88;6.80;;;3.00;99.90;;;;;;4962038;28;20650;-62
2023/04/04 07:00:51;;;;;;;12.68;5.95;;;3.10;99.90;;;;;;4963087;28;20061;-62
2023/04/04 07:03:16;;;;;;;15.18;6.10;;;3.40;99.90;;;;;;4964017;28;20395;-62
2023/04/04 07:05:42;;;;;;;17.02;6.38;;;3.50;99.90;;;;;;4964099;28;20682;-62
2023/04/04 07:08:08;;;;;;;11.93;6.20;;;3.60;99.90;;;;;;4964978;28;20289;-62
2023/04/04 07:10:34;;;;;;;14.80;6.40;;;3.60;99.90;;;;;;4969726;28;20046;-62
2023/04/04 07:13:00;;;;;;;13.93;6.88;;;3.70;99.90;;;;;;4966300;28;20053;-63
2023/04/04 07:15:26;;;;;;;13.80;6.35;;;3.80;99.90;;;;;;4960054;28;20045;-62
2023/04/04 07:17:52;;;;;;;12.27;6.53;;;4.00;99.90;;;;;;4962994;28;20118;-63
2023/04/04 07:20:18;;;;;;;21.15;6.60;;;4.00;99.90;;;;;;4972153;28;20104;-63
2023/04/04 07:22:44;;;;;;;17.15;7.15;;;4.00;99.90;;;;;;4962797;28;20210;-63
2023/04/04 07:25:10;;;;;;;10.77;6.25;;;4.10;99.90;;;;;;4963663;28;20038;-63
2023/04/04 07:27:36;;;;;;;10.40;5.00;;;4.20;99.90;;;;;;4965985;28;20616;-64
2023/04/04 07:30:03;;;;;;;10.40;5.35;;;4.30;99.90;;;;;;4961504;28;20047;-63
2023/04/04 07:32:29;;;;;;;8.85;4.32;;;4.50;99.90;;;;;;4963729;28;20042;-63
2023/04/04 07:34:54;;;;;;;8.98;4.25;;;4.70;99.90;;;;;;4965861;28;20607;-64
2023/04/04 07:37:20;;;;;;;11.80;4.65;;;4.70;99.90;;;;;;4960934;28;20081;-64
2023/04/04 07:39:48;;;;;;;8.65;4.50;;;4.70;99.90;;;;;;4967966;28;20042;-64
2023/04/04 07:42:21;;;;;;;11.77;4.57;;;4.60;99.90;;;;;;4968871;28;20457;-63
2023/04/04 07:44:47;;;;;;;;;;;4.50;99.90;;;;;;4961966;28;20092;-64
2023/04/04 07:47:13;;;;;;;11.07;4.00;;;4.70;99.90;;;;;;4963504;28;20003;-63
2023/04/04 07:49:39;;;;;;;6.40;2.72;;;4.90;99.90;;;;;;4961971;28;20100;-64
2023/04/04 07:52:05;;;;;;;8.20;2.75;;;5.10;99.90;;;;;;4964751;28;20045;-63
2023/04/04 07:54:30;;;;;;;8.93;2.88;;;5.10;99.90;;;;;;4964489;28;20041;-63
2023/04/04 07:56:56;;;;;;;11.48;2.40;;;5.30;99.90;;;;;;4961504;28;20054;-64
2023/04/04 07:59:21;;;;;;;6.05;2.13;;;5.40;99.90;;;;;;4967342;28;20049;-64
2023/04/04 08:01:47;;;;;;;6.45;3.00;;;5.40;99.90;;;;;;4962696;28;20038;-63
2023/04/04 08:04:12;;;;;;;6.53;2.83;;;5.50;99.90;;;;;;4964602;28;20118;-64
2023/04/04 08:06:38;;;;;;;6.15;2.50;;;5.40;99.90;;;;;;4957103;28;20060;-63
2023/04/04 08:09:04;;;;;;;7.82;2.80;;;5.50;99.90;;;;;;4962374;28;20218;-64
2023/04/04 08:11:30;;;;;;;5.57;2.45;;;5.60;99.90;;;;;;4958350;28;20068;-64
2023/04/04 08:13:55;;;;;;;7.95;2.92;;;5.70;99.90;;;;;;4958425;28;20093;-63
2023/04/04 08:16:22;;;;;;;8.00;2.88;;;5.80;99.90;;;;;;4962256;28;20049;-64
2023/04/04 08:18:48;;;;;;;5.72;1.80;;;5.70;99.90;;;;;;4966497;28;20062;-64
2023/04/04 08:21:14;;;;;;;4.05;2.05;;;5.80;99.90;;;;;;4961280;28;20170;-64
2023/04/04 08:23:39;;;;;;;4.55;1.80;;;5.80;99.90;;;;;;4965219;28;20431;-63
2023/04/04 08:26:05;;;;;;;5.85;1.98;;;5.90;99.90;;;;;;4969036;28;20062;-64
2023/04/04 08:28:30;;;;;;;6.78;2.42;;;5.80;99.90;;;;;;4960243;28;20047;-64
2023/04/04 08:30:56;;;;;;;6.22;2.58;;;5.90;99.90;;;;;;4962243;28;20103;-63
2023/04/04 08:33:23;;;;;;;6.18;2.47;;;6.10;99.90;;;;;;4963198;28;20147;-64
2023/04/04 08:35:49;;;;;;;5.15;2.08;;;6.10;99.90;;;;;;4958316;28;20061;-64
2023/04/04 08:38:14;;;;;;;6.32;2.55;;;5.90;99.90;;;;;;4955017;28;21785;-63
2023/04/04 08:40:40;;;;;;;5.82;2.42;;;5.90;99.90;;;;;;4968331;28;20606;-63
2023/04/04 08:43:07;;;;;;;4.95;2.33;;;6.10;99.90;;;;;;4961533;28;20039;-63
2023/04/04 08:45:33;;;;;;;6.30;2.17;;;6.10;99.90;;;;;;4960216;28;20122;-63
2023/04/04 08:48:00;;;;;;;5.40;2.70;;;5.90;99.90;;;;;;4957108;28;20046;-64
2023/04/04 08:50:28;;;;;;;5.88;2.40;;;6.20;99.90;;;;;;4955103;28;20177;-63
2023/04/04 08:52:54;;;;;;;5.15;2.75;;;6.00;99.90;;;;;;4957647;28;20053;-63
2023/04/04 08:55:20;;;;;;;5.07;2.45;;;5.80;99.90;;;;;;4957564;28;20047;-63
2023/04/04 08:57:46;;;;;;;7.20;2.80;;;6.10;99.90;;;;;;4963420;28;20509;-63
2023/04/04 09:00:16;;;;;;;8.82;3.15;;;6.00;99.90;;;;;;4953956;28;20030;-63
2023/04/04 09:02:49;;;;;;;5.70;2.47;;;6.10;99.90;;;;;;4960619;28;20043;-64
2023/04/04 09:05:15;;;;;;;4.18;2.22;;;6.20;99.90;;;;;;4963997;28;20035;-63
2023/04/04 09:07:42;;;;;;;6.38;2.10;;;6.30;99.90;;;;;;4961705;28;20356;-64
2023/04/04 09:10:10;;;;;;;6.03;2.35;;;6.50;99.90;;;;;;4964340;28;20034;-64
2023/04/04 09:12:40;;;;;;;5.93;2.67;;;6.50;99.90;;;;;;4961018;28;20070;-64
2023/04/04 09:15:06;;;;;;;7.07;2.85;;;6.80;99.90;;;;;;4959022;28;20081;-63
2023/04/04 09:17:32;;;;;;;5.95;3.08;;;6.70;99.90;;;;;;4964998;28;20444;-64
2023/04/04 09:20:03;;;;;;;6.45;2.78;;;6.90;99.90;;;;;;4962132;28;20041;-63
2023/04/04 09:22:28;;;;;;;7.63;2.78;;;6.80;99.90;;;;;;4969892;28;20740;-64
2023/04/04 09:24:55;;;;;;;8.98;3.00;;;6.90;99.90;;;;;;4976997;28;20045;-63
2023/04/04 09:27:21;;;;;;;6.63;2.80;;;6.70;99.90;;;;;;4970429;28;21745;-64
2023/04/04 09:29:47;;;;;;;6.93;2.45;;;6.60;99.90;;;;;;4967128;28;20039;-64
2023/04/04 09:32:16;;;;;;;4.30;2.45;;;6.80;99.90;;;;;;4964292;28;20042;-64
2023/04/04 09:34:43;;;;;;;9.10;2.70;;;7.00;99.90;;;;;;4964236;28;20065;-65
2023/04/04 09:37:13;;;;;;;5.60;2.85;;;7.00;99.90;;;;;;4966152;28;20030;-63
2023/04/04 09:39:39;;;;;;;6.68;2.80;;;6.80;99.90;;;;;;4962862;28;20459;-63
2023/04/04 09:42:06;;;;;;;6.25;2.60;;;6.70;99.90;;;;;;4963563;28;20352;-64
2023/04/04 09:44:33;;;;;;;7.13;2.40;;;6.70;99.90;;;;;;4964338;28;20337;-63
2023/04/04 09:47:26;;;;;;;5.90;2.58;;;6.50;99.90;;;;;;4964127;28;20043;-63
2023/04/04 09:49:56;;;;;;;6.72;2.40;;;7.00;99.90;;;;;;4970170;28;20046;-63
2023/04/04 09:52:21;;;;;;;8.25;3.17;;;7.00;99.90;;;;;;4967372;28;20399;-63
2023/04/04 09:54:58;;;;;;;5.22;2.65;;;7.10;99.90;;;;;;4975957;28;20042;-64
2023/04/04 09:57:26;;;;;;;6.15;2.30;;;6.90;99.90;;;;;;4976416;28;20092;-64
2023/04/04 09:59:59;;;;;;;7.30;2.30;;;6.90;99.90;;;;;;4967235;28;20109;-63
2023/04/04 10:02:25;;;;;;;3.95;1.55;;;6.90;99.90;;;;;;4966521;28;20042;-63
2023/04/04 10:04:53;;;;;;;4.70;2.42;;;7.00;99.90;;;;;;4967839;28;20134;-63
2023/04/04 10:07:20;;;;;;;6.57;2.13;;;7.10;99.90;;;;;;4966326;28;20042;-63
2023/04/04 10:09:49;;;;;;;6.65;2.60;;;7.20;99.90;;;;;;4966170;28;20054;-63
2023/04/04 10:12:16;;;;;;;6.30;2.42;;;7.30;99.90;;;;;;4972281;28;20039;-63
2023/04/04 10:14:41;;;;;;;7.88;2.65;;;7.20;99.90;;;;;;4971221;28;20038;-63
2023/04/04 10:17:09;;;;;;;5.68;2.42;;;7.30;99.90;;;;;;4972142;28;20042;-63
2023/04/04 10:19:36;;;;;;;5.45;2.45;;;7.30;99.90;;;;;;4972019;28;20474;-63
2023/04/04 10:22:03;;;;;;;5.63;2.92;;;7.40;99.90;;;;;;4964374;28;20041;-65
2023/04/04 10:24:28;;;;;;;6.22;2.60;;;7.40;99.90;;;;;;4964951;28;20121;-63
2023/04/04 10:26:54;;;;;;;8.20;2.80;;;7.50;99.90;;;;;;4964373;28;20052;-63
2023/04/04 10:29:20;;;;;;;6.57;2.58;;;7.30;99.90;;;;;;4965689;28;20373;-63
2023/04/04 10:31:51;;;;;;;9.68;2.70;;;7.40;99.90;;;;;;4967267;28;20543;-63
2023/04/04 10:34:27;;;;;;;6.22;2.78;;;7.40;99.90;;;;;;4967102;28;20184;-63
2023/04/04 10:37:02;;;;;;;6.15;2.45;;;7.50;99.90;;;;;;4969739;28;20406;-64
2023/04/04 10:39:52;;;;;;;6.78;2.88;;;7.20;99.90;;;;;;4964256;28;20469;-63
2023/04/04 10:42:18;;;;;;;9.45;2.95;;;7.00;99.90;;;;;;4963800;28;20050;-64
2023/04/04 10:44:45;;;;;;;6.63;2.78;;;7.10;99.90;;;;;;4962417;28;20367;-63
2023/04/04 10:47:18;;;;;;;5.68;2.45;;;7.20;99.90;;;;;;4969512;28;20494;-63
2023/04/04 10:49:45;;;;;;;6.78;2.72;;;7.30;99.90;;;;;;4969720;28;20062;-63
2023/04/04 10:52:13;;;;;;;5.20;2.33;;;7.40;99.90;;;;;;4967150;28;20520;-63
2023/04/04 10:54:40;;;;;;;9.57;2.42;;;7.20;99.90;;;;;;4965452;28;20038;-63
2023/04/04 10:57:06;;;;;;;7.22;2.60;;;7.30;99.90;;;;;;4964901;28;20138;-63
2023/04/04 10:59:32;;;;;;;8.75;2.50;;;7.40;99.90;;;;;;4963731;28;20039;-63
2023/04/04 11:01:59;;;;;;;9.00;2.85;;;7.50;99.90;;;;;;4964898;28;20348;-63
2023/04/04 11:04:37;;;;;;;5.38;2.25;;;7.50;99.90;;;;;;4966887;28;20070;-63
2023/04/04 11:07:13;;;;;;;9.13;2.70;;;7.60;99.90;;;;;;4966595;28;20285;-63
2023/04/04 11:10:12;;;;;;;5.57;2.97;;;7.60;99.90;;;;;;4972724;28;20066;-63
2023/04/04 11:12:44;;;;;;;6.22;2.85;;;7.50;99.90;;;;;;4961150;28;20043;-63
2023/04/04 11:15:11;;;;;;;6.15;2.85;;;7.40;99.90;;;;;;4963701;28;20169;-63
2023/04/04 11:18:00;;;;;;;5.65;2.00;;;7.50;99.90;;;;;;4962475;28;20049;-63
2023/04/04 11:20:34;;;;;;;4.50;2.30;;;7.60;99.90;;;;;;4964038;28;20118;-63
2023/04/04 11:23:21;;;;;;;4.55;2.13;;;7.50;99.90;;;;;;4962105;28;20321;-63
2023/04/04 11:25:58;;;;;;;4.95;2.55;;;7.30;99.90;;;;;;4964815;28;20089;-63
2023/04/04 11:28:32;;;;;;;6.65;2.20;;;7.50;99.90;;;;;;4972552;28;20122;-63
2023/04/04 11:31:19;;;;;;;5.63;2.10;;;7.60;99.90;;;;;;4964026;28;20047;-63
2023/04/04 11:34:06;;;;;;;5.93;2.60;;;7.80;99.90;;;;;;4961647;28;20047;-63
2023/04/04 11:36:35;;;;;;;7.57;2.53;;;7.80;99.90;;;;;;4959464;28;20047;-63
2023/04/04 11:39:07;;;;;;;6.70;2.20;;;7.90;99.90;;;;;;4961526;28;20115;-63
2023/04/04 11:41:52;;;;;;;9.40;2.30;;;7.90;99.90;;;;;;4966855;28;20516;-63
2023/04/04 11:44:20;;;;;;;4.70;2.20;;;7.90;99.90;;;;;;4962892;28;20039;-62
2023/04/04 11:46:46;;;;;;;6.63;2.35;;;8.00;99.90;;;;;;4963644;28;20046;-63
2023/04/04 11:49:13;;;;;;;4.10;2.20;;;8.00;99.90;;;;;;4971090;28;20109;-64
2023/04/04 11:51:42;;;;;;;7.32;2.47;;;8.00;99.90;;;;;;4976964;28;20031;-63
2023/04/04 11:54:14;;;;;;;7.05;2.35;;;8.00;99.90;;;;;;4976847;28;20117;-63
2023/04/04 11:56:44;;;;;;;6.72;2.63;;;8.10;99.90;;;;;;4984787;28;20147;-64
2023/04/04 11:59:18;;;;;;;7.38;2.45;;;8.10;99.90;;;;;;4980399;28;20046;-63
2023/04/04 12:01:44;;;;;;;5.13;2.60;;;8.10;99.90;;;;;;4977992;28;20042;-63
2023/04/04 12:04:10;;;;;;;7.65;2.50;;;8.10;99.90;;;;;;4980472;28;20043;-63
2023/04/04 12:06:38;;;;;;;9.30;2.47;;;8.00;99.90;;;;;;4973013;28;20129;-63
2023/04/04 12:09:05;;;;;;;5.72;2.58;;;8.20;99.90;;;;;;4977217;28;20181;-63
2023/04/04 12:11:34;;;;;;;6.30;2.50;;;8.20;99.90;;;;;;4980221;28;20030;-63
2023/04/04 12:14:00;;;;;;;7.47;3.10;;;8.30;99.90;;;;;;4981903;28;20406;-63
2023/04/04 12:16:27;;;;;;;6.63;2.40;;;8.30;99.90;;;;;;4989613;28;20451;-64
2023/04/04 12:18:52;;;;;;;6.90;2.53;;;8.30;99.90;;;;;;4988871;28;20061;-63
2023/04/04 12:21:19;;;;;;;7.60;2.60;;;8.40;99.90;;;;;;4986556;28;20031;-64
2023/04/04 12:23:47;;;;;;;6.20;2.60;;;8.30;99.90;;;;;;4981529;28;20494;-63
2023/04/04 12:26:14;;;;;;;8.82;2.95;;;8.20;99.90;;;;;;4978631;28;20041;-63
2023/04/04 12:28:42;;;;;;;4.32;2.13;;;8.50;99.70;;;;;;4981644;28;20687;-63
2023/04/04 12:31:08;;;;;;;5.28;2.50;;;8.20;96.80;;;;;;4983850;28;20358;-63
2023/04/04 12:33:35;;;;;;;6.38;2.30;;;8.10;99.70;;;;;;4982063;28;20038;-64
2023/04/04 12:36:05;;;;;;;5.53;2.40;;;8.10;98.00;;;;;;4974912;28;20039;-64
2023/04/04 12:38:32;;;;;;;4.20;2.00;;;8.20;99.90;;;;;;4985502;28;20034;-63
2023/04/04 12:40:58;;;;;;;5.28;2.30;;;8.20;95.50;;;;;;4978037;28;20459;-63
2023/04/04 12:43:32;;;;;;;7.03;2.50;;;8.30;99.70;;;;;;4989370;28;20093;-64
2023/04/04 12:45:58;;;;;;;5.72;2.28;;;8.40;99.10;;;;;;4981182;28;20041;-63
2023/04/04 12:48:28;;;;;;;6.47;2.30;;;8.40;98.00;;;;;;4980682;28;20481;-63
2023/04/04 12:50:56;;;;;;;5.00;2.28;;;8.20;99.90;;;;;;4970116;28;20053;-62
2023/04/04 12:53:23;;;;;;;5.03;2.13;;;8.30;98.90;;;;;;4977327;28;20049;-63